Noonamah, Australia
Current Conditions -  °F | °C
As of 9:00 AM on Friday 28 Nov 2014 (Local Time) from YPDN Reporting Station
Rain Showers Rain Showers  
Wind Chill: 79°   Ceiling: 15000
Heat Index: 82°   Visibility: 6mi
Dew Point: 75°   Wind: 3mph
Humidity: 89%   Direction: 110°ESE
Pressure: 29.83"   Gusts: NA
Location:  12.66°S, 131.08°E
Report Text: YPDN 280000Z 11003KT 9999 -SHRA FEW018 SCT040 BKN150 26/24 Q1010
Loading
Personal Weather Stations






























Interactive Weather Map New forecast layout! Learn more

10-Day Weather Forecast

Advertisements
Track Severe Weather on mobile